sensor_id;sensor_type;location;lat;lon;timestamp;pressure;altitude;pressure_sealevel;temperature
8533;BMP280;4304;53.876;10.662;2023-02-27T00:01:51;102847.38;;;-1.79
8533;BMP280;4304;53.876;10.662;2023-02-27T00:04:16;102838.88;;;-1.79
8533;BMP280;4304;53.876;10.662;2023-02-27T00:06:41;102843.13;;;-1.77
8533;BMP280;4304;53.876;10.662;2023-02-27T00:09:07;102840.59;;;-1.78
8533;BMP280;4304;53.876;10.662;2023-02-27T00:11:32;102844.91;;;-1.74
8533;BMP280;4304;53.876;10.662;2023-02-27T00:13:57;102845.84;;;-1.68
8533;BMP280;4304;53.876;10.662;2023-02-27T00:16:23;102840.69;;;-1.71
8533;BMP280;4304;53.876;10.662;2023-02-27T00:18:48;102844.88;;;-1.76
8533;BMP280;4304;53.876;10.662;2023-02-27T00:21:13;102851.66;;;-1.76
8533;BMP280;4304;53.876;10.662;2023-02-27T00:23:39;102843.13;;;-1.77
8533;BMP280;4304;53.876;10.662;2023-02-27T00:26:04;102855.09;;;-1.74
8533;BMP280;4304;53.876;10.662;2023-02-27T00:28:29;102866.06;;;-1.80
8533;BMP280;4304;53.876;10.662;2023-02-27T00:30:55;102859.19;;;-1.84
8533;BMP280;4304;53.876;10.662;2023-02-27T00:33:23;102854.03;;;-1.87
8533;BMP280;4304;53.876;10.662;2023-02-27T00:35:56;102855.66;;;-1.90
8533;BMP280;4304;53.876;10.662;2023-02-27T00:38:22;102854.69;;;-1.98
8533;BMP280;4304;53.876;10.662;2023-02-27T00:40:47;102854.72;;;-1.97
8533;BMP280;4304;53.876;10.662;2023-02-27T00:43:13;102855.50;;;-2.01
8533;BMP280;4304;53.876;10.662;2023-02-27T00:45:38;102845.19;;;-2.07
8533;BMP280;4304;53.876;10.662;2023-02-27T00:48:03;102852.81;;;-2.08
8533;BMP280;4304;53.876;10.662;2023-02-27T00:50:28;102857.00;;;-2.12
8533;BMP280;4304;53.876;10.662;2023-02-27T00:52:54;102862.06;;;-2.13
8533;BMP280;4304;53.876;10.662;2023-02-27T00:55:19;102850.13;;;-2.17
8533;BMP280;4304;53.876;10.662;2023-02-27T00:57:44;102852.63;;;-2.20
8533;BMP280;4304;53.876;10.662;2023-02-27T01:00:10;102839.03;;;-2.20
8533;BMP280;4304;53.876;10.662;2023-02-27T01:02:36;102848.44;;;-2.16
8533;BMP280;4304;53.876;10.662;2023-02-27T01:05:01;102849.25;;;-2.19
8533;BMP280;4304;53.876;10.662;2023-02-27T01:07:27;102849.06;;;-2.28
8533;BMP280;4304;53.876;10.662;2023-02-27T01:09:52;102854.06;;;-2.34
8533;BMP280;4304;53.876;10.662;2023-02-27T01:12:18;102839.66;;;-2.33
8533;BMP280;4304;53.876;10.662;2023-02-27T01:14:43;102848.09;;;-2.36
8533;BMP280;4304;53.876;10.662;2023-02-27T01:17:09;102850.66;;;-2.34
8533;BMP280;4304;53.876;10.662;2023-02-27T01:19:34;102840.38;;;-2.40
8533;BMP280;4304;53.876;10.662;2023-02-27T01:22:00;102849.63;;;-2.45
8533;BMP280;4304;53.876;10.662;2023-02-27T01:24:25;102847.00;;;-2.48
8533;BMP280;4304;53.876;10.662;2023-02-27T01:26:50;102841.06;;;-2.49
8533;BMP280;4304;53.876;10.662;2023-02-27T01:29:16;102839.31;;;-2.51
8533;BMP280;4304;53.876;10.662;2023-02-27T01:31:42;102833.28;;;-2.56
8533;BMP280;4304;53.876;10.662;2023-02-27T01:34:07;102825.59;;;-2.59
8533;BMP280;4304;53.876;10.662;2023-02-27T01:36:32;102838.25;;;-2.63
8533;BMP280;4304;53.876;10.662;2023-02-27T01:38:58;102838.28;;;-2.60
8533;BMP280;4304;53.876;10.662;2023-02-27T01:41:23;102834.81;;;-2.64
8533;BMP280;4304;53.876;10.662;2023-02-27T01:43:57;102834.78;;;-2.65
8533;BMP280;4304;53.876;10.662;2023-02-27T01:46:23;102833.97;;;-2.64
8533;BMP280;4304;53.876;10.662;2023-02-27T01:48:50;102833.03;;;-2.69
8533;BMP280;4304;53.876;10.662;2023-02-27T01:51:19;102838.06;;;-2.72
8533;BMP280;4304;53.876;10.662;2023-02-27T01:53:47;102837.16;;;-2.74
8533;BMP280;4304;53.876;10.662;2023-02-27T01:56:17;102838.91;;;-2.73
8533;BMP280;4304;53.876;10.662;2023-02-27T01:58:45;102841.47;;;-2.70
8533;BMP280;4304;53.876;10.662;2023-02-27T02:01:12;102846.59;;;-2.69
8533;BMP280;4304;53.876;10.662;2023-02-27T02:03:46;102843.25;;;-2.68
8533;BMP280;4304;53.876;10.662;2023-02-27T02:06:13;102846.66;;;-2.66
8533;BMP280;4304;53.876;10.662;2023-02-27T02:08:41;102840.69;;;-2.68
8533;BMP280;4304;53.876;10.662;2023-02-27T02:11:08;102845.81;;;-2.66
8533;BMP280;4304;53.876;10.662;2023-02-27T02:13:35;102848.28;;;-2.69
8533;BMP280;4304;53.876;10.662;2023-02-27T02:16:25;102856.06;;;-2.63
8533;BMP280;4304;53.876;10.662;2023-02-27T02:33:16;102862.00;;;-2.63
8533;BMP280;4304;53.876;10.662;2023-02-27T02:36:52;102864.50;;;-2.64
8533;BMP280;4304;53.876;10.662;2023-02-27T02:50:23;102861.06;;;-2.68
8533;BMP280;4304;53.876;10.662;2023-02-27T02:55:28;102866.06;;;-2.71
8533;BMP280;4304;53.876;10.662;2023-02-27T03:01:30;102860.88;;;-2.75
8533;BMP280;4304;53.876;10.662;2023-02-27T03:03:43;102861.66;;;-2.79
8533;BMP280;4304;53.876;10.662;2023-02-27T03:06:36;102865.00;;;-2.83
8533;BMP280;4304;53.876;10.662;2023-02-27T03:09:44;102870.84;;;-2.86
8533;BMP280;4304;53.876;10.662;2023-02-27T03:12:14;102863.13;;;-2.90
8533;BMP280;4304;53.876;10.662;2023-02-27T03:14:52;102862.97;;;-2.99
8533;BMP280;4304;53.876;10.662;2023-02-27T03:18:19;102868.00;;;-3.00
8533;BMP280;4304;53.876;10.662;2023-02-27T03:20:32;102868.00;;;-3.00
8533;BMP280;4304;53.876;10.662;2023-02-27T03:23:04;102863.72;;;-3.03
8533;BMP280;4304;53.876;10.662;2023-02-27T03:25:31;102874.78;;;-3.01
8533;BMP280;4304;53.876;10.662;2023-02-27T03:28:00;102878.09;;;-3.03
8533;BMP280;4304;53.876;10.662;2023-02-27T03:33:04;102868.69;;;-3.09
8533;BMP280;4304;53.876;10.662;2023-02-27T03:35:50;102883.91;;;-3.10
8533;BMP280;4304;53.876;10.662;2023-02-27T03:44:33;102888.88;;;-3.15
8533;BMP280;4304;53.876;10.662;2023-02-27T03:47:02;102893.16;;;-3.14
8533;BMP280;4304;53.876;10.662;2023-02-27T03:49:27;102893.03;;;-3.18
8533;BMP280;4304;53.876;10.662;2023-02-27T03:51:53;102901.47;;;-3.21
8533;BMP280;4304;53.876;10.662;2023-02-27T03:54:26;102899.78;;;-3.20
8533;BMP280;4304;53.876;10.662;2023-02-27T03:57:05;102914.16;;;-3.22
8533;BMP280;4304;53.876;10.662;2023-02-27T03:59:31;102916.63;;;-3.25
8533;BMP280;4304;53.876;10.662;2023-02-27T04:01:59;102903.88;;;-3.27
8533;BMP280;4304;53.876;10.662;2023-02-27T04:04:26;102924.28;;;-3.24
8533;BMP280;4304;53.876;10.662;2023-02-27T04:06:57;102927.75;;;-3.20
8533;BMP280;4304;53.876;10.662;2023-02-27T04:21:09;102927.91;;;-3.14
8533;BMP280;4304;53.876;10.662;2023-02-27T04:23:43;102932.84;;;-3.20
8533;BMP280;4304;53.876;10.662;2023-02-27T04:28:48;102943.81;;;-3.21
8533;BMP280;4304;53.876;10.662;2023-02-27T04:34:28;102936.19;;;-3.21
8533;BMP280;4304;53.876;10.662;2023-02-27T04:36:59;102947.13;;;-3.25
8533;BMP280;4304;53.876;10.662;2023-02-27T04:39:30;102955.59;;;-3.25
8533;BMP280;4304;53.876;10.662;2023-02-27T04:42:00;102960.56;;;-3.31
8533;BMP280;4304;53.876;10.662;2023-02-27T04:44:29;102957.25;;;-3.27
8533;BMP280;4304;53.876;10.662;2023-02-27T04:46:58;102950.53;;;-3.25
8533;BMP280;4304;53.876;10.662;2023-02-27T04:52:05;102958.06;;;-3.29
8533;BMP280;4304;53.876;10.662;2023-02-27T04:54:40;102955.44;;;-3.32
8533;BMP280;4304;53.876;10.662;2023-02-27T04:57:09;102951.09;;;-3.36
8533;BMP280;4304;53.876;10.662;2023-02-27T04:59:42;102958.69;;;-3.38
8533;BMP280;4304;53.876;10.662;2023-02-27T05:02:20;102961.25;;;-3.36
8533;BMP280;4304;53.876;10.662;2023-02-27T05:04:53;102969.00;;;-3.32
8533;BMP280;4304;53.876;10.662;2023-02-27T05:07:24;102963.16;;;-3.28
8533;BMP280;4304;53.876;10.662;2023-02-27T05:09:58;102975.94;;;-3.25
8533;BMP280;4304;53.876;10.662;2023-02-27T05:12:32;102968.97;;;-3.33
8533;BMP280;4304;53.876;10.662;2023-02-27T05:15:30;102976.50;;;-3.36
8533;BMP280;4304;53.876;10.662;2023-02-27T05:18:00;102976.34;;;-3.43
8533;BMP280;4304;53.876;10.662;2023-02-27T05:20:34;102973.59;;;-3.51
8533;BMP280;4304;53.876;10.662;2023-02-27T05:23:21;102981.31;;;-3.48
8533;BMP280;4304;53.876;10.662;2023-02-27T05:25:56;102981.22;;;-3.51
8533;BMP280;4304;53.876;10.662;2023-02-27T05:28:36;102984.69;;;-3.47
8533;BMP280;4304;53.876;10.662;2023-02-27T05:31:09;102985.63;;;-3.45
8533;BMP280;4304;53.876;10.662;2023-02-27T05:33:46;102988.16;;;-3.45
8533;BMP280;4304;53.876;10.662;2023-02-27T05:38:58;102985.38;;;-3.54
8533;BMP280;4304;53.876;10.662;2023-02-27T05:41:30;102997.28;;;-3.53
8533;BMP280;4304;53.876;10.662;2023-02-27T05:44:02;102999.81;;;-3.53
8533;BMP280;4304;53.876;10.662;2023-02-27T05:46:34;102990.63;;;-3.48
8533;BMP280;4304;53.876;10.662;2023-02-27T05:49:04;102994.22;;;-3.40
8533;BMP280;4304;53.876;10.662;2023-02-27T05:51:34;102998.50;;;-3.38
8533;BMP280;4304;53.876;10.662;2023-02-27T05:54:14;102994.09;;;-3.45
8533;BMP280;4304;53.876;10.662;2023-02-27T05:56:41;103003.34;;;-3.48
8533;BMP280;4304;53.876;10.662;2023-02-27T05:59:13;103006.56;;;-3.54
8533;BMP280;4304;53.876;10.662;2023-02-27T06:01:41;103010.81;;;-3.53
8533;BMP280;4304;53.876;10.662;2023-02-27T06:04:06;103007.66;;;-3.44
8533;BMP280;4304;53.876;10.662;2023-02-27T06:06:34;103003.50;;;-3.41
8533;BMP280;4304;53.876;10.662;2023-02-27T06:08:59;103006.13;;;-3.38
8533;BMP280;4304;53.876;10.662;2023-02-27T06:11:25;103007.16;;;-3.30
8533;BMP280;4304;53.876;10.662;2023-02-27T06:13:51;103009.88;;;-3.24
8533;BMP280;4304;53.876;10.662;2023-02-27T06:16:16;103008.31;;;-3.18
8533;BMP280;4304;53.876;10.662;2023-02-27T06:18:41;103007.50;;;-3.17
8533;BMP280;4304;53.876;10.662;2023-02-27T06:21:07;103001.53;;;-3.19
8533;BMP280;4304;53.876;10.662;2023-02-27T06:23:32;103011.00;;;-3.12
8533;BMP280;4304;53.876;10.662;2023-02-27T06:25:58;103014.47;;;-3.08
8533;BMP280;4304;53.876;10.662;2023-02-27T06:28:23;103011.03;;;-3.10
8533;BMP280;4304;53.876;10.662;2023-02-27T06:30:53;103020.41;;;-3.09
8533;BMP280;4304;53.876;10.662;2023-02-27T06:33:19;103019.56;;;-3.08
8533;BMP280;4304;53.876;10.662;2023-02-27T06:35:47;103026.53;;;-3.00
8533;BMP280;4304;53.876;10.662;2023-02-27T06:38:12;103026.78;;;-2.91
8533;BMP280;4304;53.876;10.662;2023-02-27T06:40:38;103027.66;;;-2.89
8533;BMP280;4304;53.876;10.662;2023-02-27T06:43:03;103044.00;;;-2.80
8533;BMP280;4304;53.876;10.662;2023-02-27T06:45:29;103038.25;;;-2.71
8533;BMP280;4304;53.876;10.662;2023-02-27T06:47:54;103033.22;;;-2.70
8533;BMP280;4304;53.876;10.662;2023-02-27T06:50:19;103038.56;;;-2.58
8533;BMP280;4304;53.876;10.662;2023-02-27T06:52:45;103042.97;;;-2.50
8533;BMP280;4304;53.876;10.662;2023-02-27T06:55:10;103049.94;;;-2.41
8533;BMP280;4304;53.876;10.662;2023-02-27T06:57:36;103033.91;;;-2.39
8533;BMP280;4304;53.876;10.662;2023-02-27T07:00:02;103048.53;;;-2.29
8533;BMP280;4304;53.876;10.662;2023-02-27T07:02:28;103056.34;;;-2.20
8533;BMP280;4304;53.876;10.662;2023-02-27T07:04:53;103048.88;;;-2.13
8533;BMP280;4304;53.876;10.662;2023-02-27T07:07:18;103060.00;;;-2.09
8533;BMP280;4304;53.876;10.662;2023-02-27T07:09:44;103049.88;;;-2.06
8533;BMP280;4304;53.876;10.662;2023-02-27T07:12:10;103055.03;;;-2.02
8533;BMP280;4304;53.876;10.662;2023-02-27T07:14:35;103047.47;;;-1.99
8533;BMP280;4304;53.876;10.662;2023-02-27T07:17:00;103045.00;;;-1.94
8533;BMP280;4304;53.876;10.662;2023-02-27T07:19:29;103051.38;;;-1.73
8533;BMP280;4304;53.876;10.662;2023-02-27T07:21:54;103048.28;;;-1.57
8533;BMP280;4304;53.876;10.662;2023-02-27T07:24:20;103035.00;;;-1.38
8533;BMP280;4304;53.876;10.662;2023-02-27T07:26:45;103046.44;;;-1.17
8533;BMP280;4304;53.876;10.662;2023-02-27T07:29:10;103046.16;;;-0.81
8533;BMP280;4304;53.876;10.662;2023-02-27T07:31:36;103044.16;;;-0.43
8533;BMP280;4304;53.876;10.662;2023-02-27T07:34:02;103037.81;;;-0.07
8533;BMP280;4304;53.876;10.662;2023-02-27T07:36:27;103040.75;;;0.25
8533;BMP280;4304;53.876;10.662;2023-02-27T07:38:54;103041.00;;;0.50
8533;BMP280;4304;53.876;10.662;2023-02-27T07:41:19;103046.50;;;0.92
8533;BMP280;4304;53.876;10.662;2023-02-27T07:43:45;103038.25;;;1.28
8533;BMP280;4304;53.876;10.662;2023-02-27T07:46:10;103031.69;;;1.79
8533;BMP280;4304;53.876;10.662;2023-02-27T07:48:36;103028.34;;;1.97
8533;BMP280;4304;53.876;10.662;2023-02-27T07:51:03;103033.50;;;2.09
8533;BMP280;4304;53.876;10.662;2023-02-27T07:53:29;103036.03;;;1.94
8533;BMP280;4304;53.876;10.662;2023-02-27T07:55:54;103034.31;;;1.96
8533;BMP280;4304;53.876;10.662;2023-02-27T07:58:19;103037.78;;;2.14
8533;BMP280;4304;53.876;10.662;2023-02-27T08:00:45;103040.41;;;2.29
8533;BMP280;4304;53.876;10.662;2023-02-27T08:03:10;103046.41;;;2.37
8533;BMP280;4304;53.876;10.662;2023-02-27T08:05:35;103047.28;;;2.40
8533;BMP280;4304;53.876;10.662;2023-02-27T08:08:01;103040.50;;;2.69
8533;BMP280;4304;53.876;10.662;2023-02-27T08:10:26;103054.19;;;2.71
8533;BMP280;4304;53.876;10.662;2023-02-27T08:12:52;103051.63;;;2.90
8533;BMP280;4304;53.876;10.662;2023-02-27T08:15:17;103050.78;;;2.98
8533;BMP280;4304;53.876;10.662;2023-02-27T08:17:44;103046.44;;;3.29
8533;BMP280;4304;53.876;10.662;2023-02-27T08:20:10;103061.00;;;3.36
8533;BMP280;4304;53.876;10.662;2023-02-27T08:22:37;103058.47;;;3.16
8533;BMP280;4304;53.876;10.662;2023-02-27T08:25:04;103051.56;;;3.46
8533;BMP280;4304;53.876;10.662;2023-02-27T08:27:31;103062.69;;;3.59
8533;BMP280;4304;53.876;10.662;2023-02-27T08:29:56;103053.19;;;3.77
8533;BMP280;4304;53.876;10.662;2023-02-27T08:32:22;103053.16;;;3.90
8533;BMP280;4304;53.876;10.662;2023-02-27T08:34:48;103063.25;;;4.30
8533;BMP280;4304;53.876;10.662;2023-02-27T08:37:13;103053.88;;;4.18
8533;BMP280;4304;53.876;10.662;2023-02-27T08:39:38;103086.94;;;4.83
8533;BMP280;4304;53.876;10.662;2023-02-27T08:42:04;103090.59;;;4.54
8533;BMP280;4304;53.876;10.662;2023-02-27T08:44:31;103076.81;;;4.56
8533;BMP280;4304;53.876;10.662;2023-02-27T08:46:56;103072.81;;;4.03
8533;BMP280;4304;53.876;10.662;2023-02-27T08:49:22;103083.88;;;4.26
8533;BMP280;4304;53.876;10.662;2023-02-27T08:51:49;103099.16;;;4.54
8533;BMP280;4304;53.876;10.662;2023-02-27T08:54:15;103123.88;;;4.82
8533;BMP280;4304;53.876;10.662;2023-02-27T08:56:40;103107.91;;;4.21
8533;BMP280;4304;53.876;10.662;2023-02-27T08:59:05;103101.09;;;4.09
8533;BMP280;4304;53.876;10.662;2023-02-27T09:01:31;103114.63;;;4.48
8533;BMP280;4304;53.876;10.662;2023-02-27T09:03:59;103114.47;;;4.75
8533;BMP280;4304;53.876;10.662;2023-02-27T09:06:25;103128.88;;;5.04
8533;BMP280;4304;53.876;10.662;2023-02-27T09:08:50;103124.50;;;5.18
8533;BMP280;4304;53.876;10.662;2023-02-27T09:11:16;103143.47;;;5.05
8533;BMP280;4304;53.876;10.662;2023-02-27T09:13:41;103132.22;;;5.15
8533;BMP280;4304;53.876;10.662;2023-02-27T09:16:07;103110.00;;;5.01
8533;BMP280;4304;53.876;10.662;2023-02-27T09:18:32;103149.25;;;5.34
8533;BMP280;4304;53.876;10.662;2023-02-27T09:20:58;103191.16;;;5.61
8533;BMP280;4304;53.876;10.662;2023-02-27T09:23:24;103151.81;;;5.35
8533;BMP280;4304;53.876;10.662;2023-02-27T09:25:49;103116.50;;;5.45
8533;BMP280;4304;53.876;10.662;2023-02-27T09:28:14;103156.66;;;5.71
8533;BMP280;4304;53.876;10.662;2023-02-27T09:30:40;103156.78;;;5.62
8533;BMP280;4304;53.876;10.662;2023-02-27T09:33:05;103187.91;;;5.38
8533;BMP280;4304;53.876;10.662;2023-02-27T09:35:31;103185.31;;;5.40
8533;BMP280;4304;53.876;10.662;2023-02-27T09:37:57;103231.75;;;5.34
8533;BMP280;4304;53.876;10.662;2023-02-27T09:42:50;103226.59;;;5.40
8533;BMP280;4304;53.876;10.662;2023-02-27T09:45:36;103204.44;;;5.09
8533;BMP280;4304;53.876;10.662;2023-02-27T09:48:15;103183.81;;;5.10
8533;BMP280;4304;53.876;10.662;2023-02-27T09:50:48;103216.47;;;5.10
8533;BMP280;4304;53.876;10.662;2023-02-27T09:53:32;103190.88;;;4.77
8533;BMP280;4304;53.876;10.662;2023-02-27T09:56:06;103195.13;;;4.89
8533;BMP280;4304;53.876;10.662;2023-02-27T09:58:42;103197.38;;;5.36
8533;BMP280;4304;53.876;10.662;2023-02-27T10:01:24;103178.28;;;5.58
8533;BMP280;4304;53.876;10.662;2023-02-27T10:06:42;103201.09;;;6.02
8533;BMP280;4304;53.876;10.662;2023-02-27T10:09:12;103205.84;;;5.50
8533;BMP280;4304;53.876;10.662;2023-02-27T10:16:50;103190.63;;;5.19
8533;BMP280;4304;53.876;10.662;2023-02-27T10:19:30;103196.56;;;5.33
8533;BMP280;4304;53.876;10.662;2023-02-27T10:21:58;103221.28;;;5.56
8533;BMP280;4304;53.876;10.662;2023-02-27T10:24:28;103235.97;;;5.50
8533;BMP280;4304;53.876;10.662;2023-02-27T10:26:57;103230.00;;;5.42
8533;BMP280;4304;53.876;10.662;2023-02-27T10:31:56;103270.53;;;5.22
8533;BMP280;4304;53.876;10.662;2023-02-27T10:34:25;103249.06;;;5.21
8533;BMP280;4304;53.876;10.662;2023-02-27T10:36:51;103256.88;;;5.09
8533;BMP280;4304;53.876;10.662;2023-02-27T10:39:17;103256.78;;;5.21
8533;BMP280;4304;53.876;10.662;2023-02-27T10:41:45;103260.22;;;5.17
8533;BMP280;4304;53.876;10.662;2023-02-27T10:44:14;103264.50;;;5.23
8533;BMP280;4304;53.876;10.662;2023-02-27T10:46:40;103267.03;;;5.27
8533;BMP280;4304;53.876;10.662;2023-02-27T10:49:13;103287.72;;;5.18
8533;BMP280;4304;53.876;10.662;2023-02-27T10:51:39;103273.16;;;5.13
8533;BMP280;4304;53.876;10.662;2023-02-27T10:56:44;103257.50;;;5.47
8533;BMP280;4304;53.876;10.662;2023-02-27T11:02:00;103264.41;;;5.38
8533;BMP280;4304;53.876;10.662;2023-02-27T11:04:50;103246.28;;;5.47
8533;BMP280;4304;53.876;10.662;2023-02-27T11:07:37;103272.97;;;5.44
8533;BMP280;4304;53.876;10.662;2023-02-27T11:10:17;103279.00;;;5.43
8533;BMP280;4304;53.876;10.662;2023-02-27T11:13:04;103286.84;;;5.22
8533;BMP280;4304;53.876;10.662;2023-02-27T11:15:35;103294.41;;;5.52
8533;BMP280;4304;53.876;10.662;2023-02-27T11:18:26;103322.66;;;5.77
8533;BMP280;4304;53.876;10.662;2023-02-27T11:21:07;103308.19;;;5.48
8533;BMP280;4304;53.876;10.662;2023-02-27T11:23:33;103320.13;;;5.64
8533;BMP280;4304;53.876;10.662;2023-02-27T11:34:21;103289.38;;;5.30
8533;BMP280;4304;53.876;10.662;2023-02-27T11:36:49;103307.38;;;5.39
8533;BMP280;4304;53.876;10.662;2023-02-27T11:39:36;103289.38;;;5.37
8533;BMP280;4304;53.876;10.662;2023-02-27T11:42:25;103310.75;;;5.52
8533;BMP280;4304;53.876;10.662;2023-02-27T11:44:56;103309.91;;;5.46
8533;BMP280;4304;53.876;10.662;2023-02-27T11:47:34;103295.25;;;5.55
8533;BMP280;4304;53.876;10.662;2023-02-27T11:52:43;103306.31;;;5.78
8533;BMP280;4304;53.876;10.662;2023-02-27T11:55:14;103300.34;;;5.64
8533;BMP280;4304;53.876;10.662;2023-02-27T11:57:43;103274.72;;;5.38
8533;BMP280;4304;53.876;10.662;2023-02-27T12:00:25;103278.97;;;5.45
8533;BMP280;4304;53.876;10.662;2023-02-27T12:03:09;103330.66;;;5.30
8533;BMP280;4304;53.876;10.662;2023-02-27T12:06:12;103311.66;;;5.47
8533;BMP280;4304;53.876;10.662;2023-02-27T12:08:40;103363.25;;;5.46
8533;BMP280;4304;53.876;10.662;2023-02-27T12:11:33;103335.66;;;5.55
8533;BMP280;4304;53.876;10.662;2023-02-27T12:16:36;103341.69;;;5.52
8533;BMP280;4304;53.876;10.662;2023-02-27T12:19:30;103362.25;;;5.64
8533;BMP280;4304;53.876;10.662;2023-02-27T12:22:03;103331.28;;;5.64
8533;BMP280;4304;53.876;10.662;2023-02-27T12:24:47;103323.50;;;5.78
8533;BMP280;4304;53.876;10.662;2023-02-27T12:27:21;103301.25;;;5.60
8533;BMP280;4304;53.876;10.662;2023-02-27T12:30:01;103299.53;;;5.58
8533;BMP280;4304;53.876;10.662;2023-02-27T12:32:43;103325.28;;;5.65
8533;BMP280;4304;53.876;10.662;2023-02-27T12:37:43;103307.31;;;5.51
8533;BMP280;4304;53.876;10.662;2023-02-27T12:40:14;103292.56;;;5.69
8533;BMP280;4304;53.876;10.662;2023-02-27T12:42:51;103250.47;;;5.67
8533;BMP280;4304;53.876;10.662;2023-02-27T12:48:41;103263.13;;;5.96
8533;BMP280;4304;53.876;10.662;2023-02-27T12:54:21;103212.47;;;5.85
8533;BMP280;4304;53.876;10.662;2023-02-27T12:56:58;103243.31;;;6.01
8533;BMP280;4304;53.876;10.662;2023-02-27T13:05:29;103243.34;;;5.95
8533;BMP280;4304;53.876;10.662;2023-02-27T13:08:06;103223.84;;;5.63
8533;BMP280;4304;53.876;10.662;2023-02-27T13:10:41;103225.41;;;5.81
8533;BMP280;4304;53.876;10.662;2023-02-27T13:13:46;103222.09;;;5.64
8533;BMP280;4304;53.876;10.662;2023-02-27T13:16:16;103191.03;;;5.73
8533;BMP280;4304;53.876;10.662;2023-02-27T13:18:50;103192.13;;;5.48
8533;BMP280;4304;53.876;10.662;2023-02-27T13:26:38;103174.88;;;5.54
8533;BMP280;4304;53.876;10.662;2023-02-27T13:29:05;103175.69;;;5.59
8533;BMP280;4304;53.876;10.662;2023-02-27T13:31:44;103156.69;;;5.74
8533;BMP280;4304;53.876;10.662;2023-02-27T13:37:03;103176.19;;;6.00
8533;BMP280;4304;53.876;10.662;2023-02-27T13:44:59;103160.22;;;5.58
8533;BMP280;4304;53.876;10.662;2023-02-27T13:47:39;103167.09;;;5.59
8533;BMP280;4304;53.876;10.662;2023-02-27T13:52:43;103165.28;;;5.74
8533;BMP280;4304;53.876;10.662;2023-02-27T13:55:27;103183.38;;;5.67
8533;BMP280;4304;53.876;10.662;2023-02-27T13:57:58;103179.06;;;5.67
8533;BMP280;4304;53.876;10.662;2023-02-27T14:00:27;103175.56;;;5.73
8533;BMP280;4304;53.876;10.662;2023-02-27T14:03:20;103176.44;;;5.75
8533;BMP280;4304;53.876;10.662;2023-02-27T14:05:50;103161.94;;;5.62
8533;BMP280;4304;53.876;10.662;2023-02-27T14:08:23;103152.44;;;5.65
8533;BMP280;4304;53.876;10.662;2023-02-27T14:14:02;103168.81;;;5.60
8533;BMP280;4304;53.876;10.662;2023-02-27T14:26:57;103212.72;;;5.52
8533;BMP280;4304;53.876;10.662;2023-02-27T14:29:27;103214.50;;;5.48
8533;BMP280;4304;53.876;10.662;2023-02-27T14:31:57;103184.59;;;5.23
8533;BMP280;4304;53.876;10.662;2023-02-27T14:34:25;103168.13;;;5.39
8533;BMP280;4304;53.876;10.662;2023-02-27T14:36:55;103160.47;;;5.28
8533;BMP280;4304;53.876;10.662;2023-02-27T14:39:25;103143.34;;;5.23
8533;BMP280;4304;53.876;10.662;2023-02-27T14:42:15;103128.84;;;5.10
8533;BMP280;4304;53.876;10.662;2023-02-27T14:44:47;103137.38;;;5.15
8533;BMP280;4304;53.876;10.662;2023-02-27T14:47:36;103133.91;;;5.17
8533;BMP280;4304;53.876;10.662;2023-02-27T14:50:04;103136.56;;;5.11
8533;BMP280;4304;53.876;10.662;2023-02-27T14:52:32;103126.28;;;5.06
8533;BMP280;4304;53.876;10.662;2023-02-27T14:57:31;103134.84;;;5.07
8533;BMP280;4304;53.876;10.662;2023-02-27T14:59:56;103133.09;;;5.14
8533;BMP280;4304;53.876;10.662;2023-02-27T15:02:27;103145.13;;;5.13
8533;BMP280;4304;53.876;10.662;2023-02-27T15:05:10;103144.31;;;5.08
8533;BMP280;4304;53.876;10.662;2023-02-27T15:07:38;103144.34;;;5.01
8533;BMP280;4304;53.876;10.662;2023-02-27T15:10:07;103138.38;;;4.96
8533;BMP280;4304;53.876;10.662;2023-02-27T15:12:38;103136.56;;;5.08
8533;BMP280;4304;53.876;10.662;2023-02-27T15:15:05;103138.31;;;5.09
8533;BMP280;4304;53.876;10.662;2023-02-27T15:17:40;103143.50;;;5.01
8533;BMP280;4304;53.876;10.662;2023-02-27T15:22:47;103149.53;;;5.00
8533;BMP280;4304;53.876;10.662;2023-02-27T15:25:27;103150.50;;;4.84
8533;BMP280;4304;53.876;10.662;2023-02-27T15:27:56;103151.28;;;4.95
8533;BMP280;4304;53.876;10.662;2023-02-27T15:30:24;103143.59;;;4.90
8533;BMP280;4304;53.876;10.662;2023-02-27T15:32:50;103145.25;;;4.99
8533;BMP280;4304;53.876;10.662;2023-02-27T15:35:22;103154.69;;;5.00
8533;BMP280;4304;53.876;10.662;2023-02-27T15:37:53;103156.28;;;5.15
8533;BMP280;4304;53.876;10.662;2023-02-27T15:40:22;103162.25;;;5.22
8533;BMP280;4304;53.876;10.662;2023-02-27T15:42:48;103140.91;;;5.07
8533;BMP280;4304;53.876;10.662;2023-02-27T15:45:18;103145.16;;;5.07
8533;BMP280;4304;53.876;10.662;2023-02-27T15:47:44;103140.16;;;4.90
8533;BMP280;4304;53.876;10.662;2023-02-27T15:53:07;103134.19;;;4.83
8533;BMP280;4304;53.876;10.662;2023-02-27T15:55:40;103137.59;;;4.87
8533;BMP280;4304;53.876;10.662;2023-02-27T16:00:42;103147.09;;;4.74
8533;BMP280;4304;53.876;10.662;2023-02-27T16:03:08;103137.63;;;4.84
8533;BMP280;4304;53.876;10.662;2023-02-27T16:05:38;103143.69;;;4.77
8533;BMP280;4304;53.876;10.662;2023-02-27T16:08:05;103135.94;;;4.75
8533;BMP280;4304;53.876;10.662;2023-02-27T16:10:36;103129.06;;;4.76
8533;BMP280;4304;53.876;10.662;2023-02-27T16:16:20;103127.41;;;4.66
8533;BMP280;4304;53.876;10.662;2023-02-27T16:18:49;103128.16;;;4.81
8533;BMP280;4304;53.876;10.662;2023-02-27T16:21:18;103128.25;;;4.68
8533;BMP280;4304;53.876;10.662;2023-02-27T16:23:44;103121.50;;;4.54
8533;BMP280;4304;53.876;10.662;2023-02-27T16:29:05;103113.72;;;4.55
8533;BMP280;4304;53.876;10.662;2023-02-27T16:31:46;103121.34;;;4.76
8533;BMP280;4304;53.876;10.662;2023-02-27T16:36:37;103118.84;;;4.64
8533;BMP280;4304;53.876;10.662;2023-02-27T16:39:03;103099.16;;;4.54
8533;BMP280;4304;53.876;10.662;2023-02-27T16:41:30;103100.91;;;4.46
8533;BMP280;4304;53.876;10.662;2023-02-27T16:43:55;103096.66;;;4.42
8533;BMP280;4304;53.876;10.662;2023-02-27T16:46:21;103100.06;;;4.44
8533;BMP280;4304;53.876;10.662;2023-02-27T16:48:49;103103.47;;;4.51
8533;BMP280;4304;53.876;10.662;2023-02-27T16:51:17;103101.75;;;4.47
8533;BMP280;4304;53.876;10.662;2023-02-27T16:53:45;103096.63;;;4.47
8533;BMP280;4304;53.876;10.662;2023-02-27T16:56:11;103088.06;;;4.43
8533;BMP280;4304;53.876;10.662;2023-02-27T16:58:37;103087.22;;;4.38
8533;BMP280;4304;53.876;10.662;2023-02-27T17:01:03;103095.78;;;4.45
8533;BMP280;4304;53.876;10.662;2023-02-27T17:03:28;103100.94;;;4.40
8533;BMP280;4304;53.876;10.662;2023-02-27T17:05:53;103094.09;;;4.41
8533;BMP280;4304;53.876;10.662;2023-02-27T17:08:19;103096.66;;;4.42
8533;BMP280;4304;53.876;10.662;2023-02-27T17:10:46;103093.22;;;4.40
8533;BMP280;4304;53.876;10.662;2023-02-27T17:13:11;103084.72;;;4.28